Airfield :
LOGIN :

Register | Disclaimer

   EN    FR    IT 

 










Legend :    VFR   Marginal VFR   IFR   Intensive IFR   Very Intensive IFR
Visi :
Ceiling :
>= 8 km
>= 3000ft
5 to 8 km
1000 to 3000 ft
1500m to 5 km
500 to 1000 ft
800 to 1500m
200 to 500 ft
< 800m
< 200 ft
Symbols :   Thunderstorms  Fog  Heavy snow  Heavy precipitations  Wind > 20 kt
SIGMETs :     Misc.  Thunderstorms  Icing  Turbulence  Mountain Waves  Volcanic Ashes







- Airport Elevation : 326 ft
- IATA code : LCG
- Download approach charts


LECO - A Coruna

CURRENT METAR :
  • 210745Z 23003KT 160V280 1000 R21/0900U R03/1800U BCFG -RA FEW001 SCT026 03/03 Q1026 TEMPO 2000 BCFG

EXPIRED METARs :
  • 210730Z 20004KT 0300 R21/0800U R03/0400D FG -RA FEW001 SCT026 04/04 Q1026 TEMPO 2000 BCFG
  • 210713Z VRB02KT 0400 R21/1700D R03/0700U BCFG -RA FEW001 SCT026 05/05 Q1026 TEMPO 2000 BCFG
  • 210700Z 00000KT 9999 2000N VCFG FEW001 SCT026 06/06 Q1026 TEMPO 2000 BCFG
  • 210644Z 24003KT 220V300 1800 -RA BCFG FEW001 SCT026 04/04 Q1025 TEMPO 0800 RA
  • 210630Z 18004KT 140V210 0150 R21/0750D R03/0400N -RA PRFG FEW001 SCT026 05/05 Q1025 TEMPO 1500 RA
  • 210610Z VRB03KT 0300 R21/1200U R03/0500D -RA PRFG FEW002 SCT026 05/05 Q1025 TEMPO 1500 RA
  • 210600Z 00000KT 2000 0400S R03/0600D R21/P2000 -RA PRFG FEW002 06/06 Q1025 TEMPO 0800 RA
  • 210540Z 16001KT 9999 0500E -RA BCFG FEW022 06/06 Q1025 TEMPO 0800 RA
  • 210530Z 19003KT 0200 R21/0900U R03/0550U -RA BCFG FEW022 06/06 Q1025 TEMPO 1500 RA
  • 210500Z VRB02KT 0500 R21/1500U R03/1300U -RA BCFG FEW022 06/06 Q1025 TEMPO 1500 RA

TAF AMD TAF LECO
Valid from the 21 at 07:00 until the 22 at 03:00 UTC


210746Z 2107/2203 35006KT 9999 SCT025 TX12/2114Z TN06/2107Z
PROB40
TEMPO 2107/2109 3000 SHRA SCT030TCU
TEMPO 2107/2109 1500 BR BCFG
TEMPO 2107/2109 0600 BCFG
PROB30
TEMPO 2107/2121 RA
PROB40
TEMPO 2121/2203 29010KT RA
No reported NOTAMs for that airfield.



MET'MAP, your aeronautical weather chart ! - Copyright ORBIFLY December 2007 - Disclaimer

ORBIFLY MET'MAP TEAM :

Programming & Development : Alexandra Zaïnal
Concept & Development : Baudouin d'Aumeries
Co-Development & Prog : Marc-Olivier Méhu
Technical & hardware support : Manuel Goepfert

Contact : metmap@orbifly.com




SOURCES & CREDITS :

   NOAA